sensor_id;sensor_type;location;lat;lon;timestamp;pressure;altitude;pressure_sealevel;temperature
70533;BMP180;58088;51.186;17.130;2023-04-03T00:01:24;101086.00;;;4.10
70533;BMP180;58088;51.186;17.130;2023-04-03T00:03:50;101085.80;;;4.10
70533;BMP180;58088;51.186;17.130;2023-04-03T00:06:17;101083.80;;;4.10
70533;BMP180;58088;51.186;17.130;2023-04-03T00:08:43;101096.20;;;4.10
70533;BMP180;58088;51.186;17.130;2023-04-03T00:11:10;101086.60;;;4.10
70533;BMP180;58088;51.186;17.130;2023-04-03T00:13:38;101087.20;;;4.00
70533;BMP180;58088;51.186;17.130;2023-04-03T00:16:05;101084.60;;;4.00
70533;BMP180;58088;51.186;17.130;2023-04-03T00:18:31;101091.60;;;4.00
70533;BMP180;58088;51.186;17.130;2023-04-03T00:20:58;101093.80;;;4.00
70533;BMP180;58088;51.186;17.130;2023-04-03T00:23:24;101095.40;;;4.00
70533;BMP180;58088;51.186;17.130;2023-04-03T00:25:51;101089.80;;;4.00
70533;BMP180;58088;51.186;17.130;2023-04-03T00:28:17;101088.80;;;3.92
70533;BMP180;58088;51.186;17.130;2023-04-03T00:30:44;101084.60;;;4.00
70533;BMP180;58088;51.186;17.130;2023-04-03T00:33:13;101090.00;;;3.94
70533;BMP180;58088;51.186;17.130;2023-04-03T00:35:40;101092.20;;;3.94
70533;BMP180;58088;51.186;17.130;2023-04-03T00:38:07;101084.80;;;3.90
70533;BMP180;58088;51.186;17.130;2023-04-03T00:40:42;101091.20;;;3.90
70533;BMP180;58088;51.186;17.130;2023-04-03T00:43:24;101083.80;;;3.80
70533;BMP180;58088;51.186;17.130;2023-04-03T00:45:57;101081.60;;;3.80
70533;BMP180;58088;51.186;17.130;2023-04-03T00:48:36;101078.00;;;3.76
70533;BMP180;58088;51.186;17.130;2023-04-03T00:51:08;101080.80;;;3.74
70533;BMP180;58088;51.186;17.130;2023-04-03T00:53:58;101091.20;;;3.70
70533;BMP180;58088;51.186;17.130;2023-04-03T00:56:27;101088.80;;;3.70
70533;BMP180;58088;51.186;17.130;2023-04-03T00:59:04;101093.60;;;3.68
70533;BMP180;58088;51.186;17.130;2023-04-03T01:01:32;101092.00;;;3.66
70533;BMP180;58088;51.186;17.130;2023-04-03T01:04:00;101101.00;;;3.60
70533;BMP180;58088;51.186;17.130;2023-04-03T01:06:31;101103.80;;;3.60
70533;BMP180;58088;51.186;17.130;2023-04-03T01:09:04;101107.80;;;3.60
70533;BMP180;58088;51.186;17.130;2023-04-03T01:11:31;101108.80;;;3.60
70533;BMP180;58088;51.186;17.130;2023-04-03T01:13:57;101111.60;;;3.60
70533;BMP180;58088;51.186;17.130;2023-04-03T01:16:24;101111.20;;;3.58
70533;BMP180;58088;51.186;17.130;2023-04-03T01:18:50;101107.40;;;3.50
70533;BMP180;58088;51.186;17.130;2023-04-03T01:27:01;101122.80;;;3.50
70533;BMP180;58088;51.186;17.130;2023-04-03T01:29:28;101128.80;;;3.50
70533;BMP180;58088;51.186;17.130;2023-04-03T01:31:59;101128.20;;;3.50
70533;BMP180;58088;51.186;17.130;2023-04-03T01:34:28;101128.20;;;3.50
70533;BMP180;58088;51.186;17.130;2023-04-03T01:36:55;101127.40;;;3.48
70533;BMP180;58088;51.186;17.130;2023-04-03T01:39:23;101133.40;;;3.40
70533;BMP180;58088;51.186;17.130;2023-04-03T01:41:49;101138.00;;;3.40
70533;BMP180;58088;51.186;17.130;2023-04-03T01:44:37;101141.00;;;3.40
70533;BMP180;58088;51.186;17.130;2023-04-03T01:47:06;101140.80;;;3.40
70533;BMP180;58088;51.186;17.130;2023-04-03T01:49:33;101144.40;;;3.36
70533;BMP180;58088;51.186;17.130;2023-04-03T01:52:00;101148.00;;;3.30
70533;BMP180;58088;51.186;17.130;2023-04-03T01:54:26;101147.00;;;3.30
70533;BMP180;58088;51.186;17.130;2023-04-03T01:56:53;101151.20;;;3.30
70533;BMP180;58088;51.186;17.130;2023-04-03T01:59:19;101156.60;;;3.30
70533;BMP180;58088;51.186;17.130;2023-04-03T02:02:12;101159.40;;;3.30
70533;BMP180;58088;51.186;17.130;2023-04-03T02:04:58;101157.80;;;3.20
70533;BMP180;58088;51.186;17.130;2023-04-03T02:07:25;101158.60;;;3.20
70533;BMP180;58088;51.186;17.130;2023-04-03T02:09:51;101155.80;;;3.20
70533;BMP180;58088;51.186;17.130;2023-04-03T02:12:18;101158.60;;;3.20
70533;BMP180;58088;51.186;17.130;2023-04-03T02:14:44;101161.80;;;3.10
70533;BMP180;58088;51.186;17.130;2023-04-03T02:17:11;101161.20;;;3.10
70533;BMP180;58088;51.186;17.130;2023-04-03T02:19:37;101159.80;;;3.10
70533;BMP180;58088;51.186;17.130;2023-04-03T02:22:05;101163.60;;;3.10
70533;BMP180;58088;51.186;17.130;2023-04-03T02:24:32;101159.00;;;3.04
70533;BMP180;58088;51.186;17.130;2023-04-03T02:26:59;101169.20;;;3.00
70533;BMP180;58088;51.186;17.130;2023-04-03T02:29:25;101166.00;;;3.00
70533;BMP180;58088;51.186;17.130;2023-04-03T02:31:53;101169.00;;;3.00
70533;BMP180;58088;51.186;17.130;2023-04-03T02:34:20;101172.60;;;2.90
70533;BMP180;58088;51.186;17.130;2023-04-03T02:36:46;101167.40;;;2.90
70533;BMP180;58088;51.186;17.130;2023-04-03T02:39:13;101168.20;;;2.90
70533;BMP180;58088;51.186;17.130;2023-04-03T02:41:39;101168.20;;;2.80
70533;BMP180;58088;51.186;17.130;2023-04-03T02:44:11;101167.20;;;2.80
70533;BMP180;58088;51.186;17.130;2023-04-03T02:46:38;101175.40;;;2.80
70533;BMP180;58088;51.186;17.130;2023-04-03T02:49:05;101179.00;;;2.80
70533;BMP180;58088;51.186;17.130;2023-04-03T02:51:31;101185.20;;;2.74
70533;BMP180;58088;51.186;17.130;2023-04-03T02:53:58;101187.40;;;2.70
70533;BMP180;58088;51.186;17.130;2023-04-03T02:56:27;101188.40;;;2.70
70533;BMP180;58088;51.186;17.130;2023-04-03T02:58:53;101185.20;;;2.70
70533;BMP180;58088;51.186;17.130;2023-04-03T03:01:19;101191.60;;;2.70
70533;BMP180;58088;51.186;17.130;2023-04-03T03:03:46;101193.80;;;2.70
70533;BMP180;58088;51.186;17.130;2023-04-03T03:06:15;101192.00;;;2.70
70533;BMP180;58088;51.186;17.130;2023-04-03T03:08:43;101196.80;;;2.60
70533;BMP180;58088;51.186;17.130;2023-04-03T03:11:10;101188.00;;;2.60
70533;BMP180;58088;51.186;17.130;2023-04-03T03:13:36;101191.80;;;2.60
70533;BMP180;58088;51.186;17.130;2023-04-03T03:16:03;101189.20;;;2.58
70533;BMP180;58088;51.186;17.130;2023-04-03T03:18:30;101192.00;;;2.50
70533;BMP180;58088;51.186;17.130;2023-04-03T03:20:58;101185.40;;;2.50
70533;BMP180;58088;51.186;17.130;2023-04-03T03:23:28;101193.00;;;2.50
70533;BMP180;58088;51.186;17.130;2023-04-03T03:25:57;101191.20;;;2.50
70533;BMP180;58088;51.186;17.130;2023-04-03T03:28:24;101190.60;;;2.42
70533;BMP180;58088;51.186;17.130;2023-04-03T03:30:51;101192.00;;;2.40
70533;BMP180;58088;51.186;17.130;2023-04-03T03:33:18;101192.00;;;2.40
70533;BMP180;58088;51.186;17.130;2023-04-03T03:35:45;101194.40;;;2.40
70533;BMP180;58088;51.186;17.130;2023-04-03T03:38:12;101201.00;;;2.38
70533;BMP180;58088;51.186;17.130;2023-04-03T03:40:38;101197.60;;;2.34
70533;BMP180;58088;51.186;17.130;2023-04-03T03:43:05;101201.60;;;2.32
70533;BMP180;58088;51.186;17.130;2023-04-03T03:45:32;101206.40;;;2.30
70533;BMP180;58088;51.186;17.130;2023-04-03T03:47:58;101206.20;;;2.30
70533;BMP180;58088;51.186;17.130;2023-04-03T03:50:24;101207.20;;;2.30
70533;BMP180;58088;51.186;17.130;2023-04-03T03:52:51;101210.60;;;2.30
70533;BMP180;58088;51.186;17.130;2023-04-03T03:55:17;101214.40;;;2.24
70533;BMP180;58088;51.186;17.130;2023-04-03T03:57:45;101212.00;;;2.20
70533;BMP180;58088;51.186;17.130;2023-04-03T04:00:12;101213.00;;;2.20
70533;BMP180;58088;51.186;17.130;2023-04-03T04:02:42;101222.60;;;2.20
70533;BMP180;58088;51.186;17.130;2023-04-03T04:05:11;101216.80;;;2.20
70533;BMP180;58088;51.186;17.130;2023-04-03T04:07:38;101224.40;;;2.20
70533;BMP180;58088;51.186;17.130;2023-04-03T04:10:05;101225.20;;;2.20
70533;BMP180;58088;51.186;17.130;2023-04-03T04:12:32;101220.20;;;2.20
70533;BMP180;58088;51.186;17.130;2023-04-03T04:14:58;101225.20;;;2.20
70533;BMP180;58088;51.186;17.130;2023-04-03T04:17:25;101225.20;;;2.20
70533;BMP180;58088;51.186;17.130;2023-04-03T04:19:52;101227.00;;;2.20
70533;BMP180;58088;51.186;17.130;2023-04-03T04:22:18;101225.20;;;2.12
70533;BMP180;58088;51.186;17.130;2023-04-03T04:24:44;101229.60;;;2.10
70533;BMP180;58088;51.186;17.130;2023-04-03T04:27:11;101229.60;;;2.10
70533;BMP180;58088;51.186;17.130;2023-04-03T04:29:37;101239.40;;;2.10
70533;BMP180;58088;51.186;17.130;2023-04-03T04:32:05;101234.20;;;2.14
70533;BMP180;58088;51.186;17.130;2023-04-03T04:34:31;101238.60;;;2.14
70533;BMP180;58088;51.186;17.130;2023-04-03T04:36:57;101247.00;;;2.10
70533;BMP180;58088;51.186;17.130;2023-04-03T04:39:24;101250.60;;;2.10
70533;BMP180;58088;51.186;17.130;2023-04-03T04:41:50;101253.40;;;2.10
70533;BMP180;58088;51.186;17.130;2023-04-03T04:44:17;101252.80;;;2.20
70533;BMP180;58088;51.186;17.130;2023-04-03T04:46:43;101259.60;;;2.50
70533;BMP180;58088;51.186;17.130;2023-04-03T04:49:10;101256.00;;;2.82
70533;BMP180;58088;51.186;17.130;2023-04-03T04:51:36;101257.60;;;3.18
70533;BMP180;58088;51.186;17.130;2023-04-03T04:54:02;101264.00;;;3.50
70533;BMP180;58088;51.186;17.130;2023-04-03T04:56:29;101262.60;;;3.88
70533;BMP180;58088;51.186;17.130;2023-04-03T04:58:55;101260.00;;;4.28
70533;BMP180;58088;51.186;17.130;2023-04-03T05:01:22;101260.20;;;4.62
70533;BMP180;58088;51.186;17.130;2023-04-03T05:03:54;101264.20;;;5.04
70533;BMP180;58088;51.186;17.130;2023-04-03T05:06:22;101257.40;;;5.38
70533;BMP180;58088;51.186;17.130;2023-04-03T05:08:50;101262.20;;;5.68
70533;BMP180;58088;51.186;17.130;2023-04-03T05:11:17;101251.60;;;5.90
70533;BMP180;58088;51.186;17.130;2023-04-03T05:13:43;101256.60;;;6.20
70533;BMP180;58088;51.186;17.130;2023-04-03T05:16:10;101266.60;;;6.48
70533;BMP180;58088;51.186;17.130;2023-04-03T05:18:37;101265.20;;;6.70
70533;BMP180;58088;51.186;17.130;2023-04-03T05:21:07;101269.00;;;6.92
70533;BMP180;58088;51.186;17.130;2023-04-03T05:23:34;101268.00;;;7.10
70533;BMP180;58088;51.186;17.130;2023-04-03T05:26:00;101273.00;;;7.30
70533;BMP180;58088;51.186;17.130;2023-04-03T05:28:26;101280.60;;;7.54
70533;BMP180;58088;51.186;17.130;2023-04-03T05:30:58;101273.60;;;7.64
70533;BMP180;58088;51.186;17.130;2023-04-03T05:33:28;101280.20;;;7.70
70533;BMP180;58088;51.186;17.130;2023-04-03T05:35:56;101282.40;;;7.90
70533;BMP180;58088;51.186;17.130;2023-04-03T05:38:26;101282.40;;;8.10
70533;BMP180;58088;51.186;17.130;2023-04-03T05:40:53;101276.20;;;8.30
70533;BMP180;58088;51.186;17.130;2023-04-03T05:43:19;101285.60;;;8.40
70533;BMP180;58088;51.186;17.130;2023-04-03T05:45:47;101289.20;;;8.58
70533;BMP180;58088;51.186;17.130;2023-04-03T05:48:14;101283.80;;;8.76
70533;BMP180;58088;51.186;17.130;2023-04-03T05:50:41;101291.00;;;8.90
70533;BMP180;58088;51.186;17.130;2023-04-03T05:53:26;101279.80;;;8.90
70533;BMP180;58088;51.186;17.130;2023-04-03T05:55:53;101292.20;;;9.00
70533;BMP180;58088;51.186;17.130;2023-04-03T05:58:20;101289.00;;;9.00
70533;BMP180;58088;51.186;17.130;2023-04-03T06:00:47;101289.60;;;9.20
70533;BMP180;58088;51.186;17.130;2023-04-03T06:03:15;101291.00;;;9.30
70533;BMP180;58088;51.186;17.130;2023-04-03T06:05:43;101289.20;;;9.30
70533;BMP180;58088;51.186;17.130;2023-04-03T06:08:10;101298.40;;;9.30
70533;BMP180;58088;51.186;17.130;2023-04-03T06:10:36;101300.40;;;9.30
70533;BMP180;58088;51.186;17.130;2023-04-03T06:13:04;101297.80;;;9.40
70533;BMP180;58088;51.186;17.130;2023-04-03T06:15:30;101294.20;;;9.20
70533;BMP180;58088;51.186;17.130;2023-04-03T06:17:56;101299.20;;;9.10
70533;BMP180;58088;51.186;17.130;2023-04-03T06:20:23;101297.00;;;9.10
70533;BMP180;58088;51.186;17.130;2023-04-03T06:22:49;101300.80;;;9.20
70533;BMP180;58088;51.186;17.130;2023-04-03T06:25:16;101311.00;;;9.20
70533;BMP180;58088;51.186;17.130;2023-04-03T06:27:45;101306.40;;;9.10
70533;BMP180;58088;51.186;17.130;2023-04-03T06:30:11;101313.00;;;8.86
70533;BMP180;58088;51.186;17.130;2023-04-03T06:32:38;101316.60;;;8.70
70533;BMP180;58088;51.186;17.130;2023-04-03T06:35:05;101313.80;;;8.42
70533;BMP180;58088;51.186;17.130;2023-04-03T06:37:32;101316.60;;;8.40
70533;BMP180;58088;51.186;17.130;2023-04-03T06:39:58;101308.80;;;8.24
70533;BMP180;58088;51.186;17.130;2023-04-03T06:42:26;101318.20;;;8.40
70533;BMP180;58088;51.186;17.130;2023-04-03T06:45:00;101323.20;;;8.30
70533;BMP180;58088;51.186;17.130;2023-04-03T06:47:26;101321.20;;;8.38
70533;BMP180;58088;51.186;17.130;2023-04-03T06:49:52;101324.80;;;8.32
70533;BMP180;58088;51.186;17.130;2023-04-03T06:52:19;101326.20;;;8.30
70533;BMP180;58088;51.186;17.130;2023-04-03T06:54:45;101324.80;;;8.40
70533;BMP180;58088;51.186;17.130;2023-04-03T06:57:11;101338.20;;;8.14
70533;BMP180;58088;51.186;17.130;2023-04-03T06:59:37;101342.40;;;8.04
70533;BMP180;58088;51.186;17.130;2023-04-03T07:02:04;101337.00;;;7.72
70533;BMP180;58088;51.186;17.130;2023-04-03T07:04:30;101342.00;;;7.54
70533;BMP180;58088;51.186;17.130;2023-04-03T07:06:56;101347.20;;;7.62
70533;BMP180;58088;51.186;17.130;2023-04-03T07:09:22;101352.60;;;8.00
70533;BMP180;58088;51.186;17.130;2023-04-03T07:11:48;101343.80;;;8.10
70533;BMP180;58088;51.186;17.130;2023-04-03T07:14:15;101353.40;;;7.90
70533;BMP180;58088;51.186;17.130;2023-04-03T07:16:42;101359.00;;;7.64
70533;BMP180;58088;51.186;17.130;2023-04-03T07:19:08;101356.40;;;7.40
70533;BMP180;58088;51.186;17.130;2023-04-03T07:21:34;101359.00;;;7.30
70533;BMP180;58088;51.186;17.130;2023-04-03T07:24:01;101361.00;;;7.20
70533;BMP180;58088;51.186;17.130;2023-04-03T07:26:27;101367.20;;;7.40
70533;BMP180;58088;51.186;17.130;2023-04-03T07:28:54;101369.00;;;7.40
70533;BMP180;58088;51.186;17.130;2023-04-03T07:31:21;101366.00;;;7.50
70533;BMP180;58088;51.186;17.130;2023-04-03T07:33:47;101371.40;;;7.52
70533;BMP180;58088;51.186;17.130;2023-04-03T07:36:20;101377.00;;;7.40
70533;BMP180;58088;51.186;17.130;2023-04-03T07:38:47;101374.00;;;7.44
70533;BMP180;58088;51.186;17.130;2023-04-03T07:41:19;101374.00;;;7.50
70533;BMP180;58088;51.186;17.130;2023-04-03T07:43:48;101376.00;;;7.50
70533;BMP180;58088;51.186;17.130;2023-04-03T07:46:16;101373.00;;;7.62
70533;BMP180;58088;51.186;17.130;2023-04-03T07:48:43;101374.40;;;7.90
70533;BMP180;58088;51.186;17.130;2023-04-03T07:51:09;101373.80;;;7.90
70533;BMP180;58088;51.186;17.130;2023-04-03T07:53:36;101376.80;;;7.90
70533;BMP180;58088;51.186;17.130;2023-04-03T07:56:02;101369.40;;;7.92
70533;BMP180;58088;51.186;17.130;2023-04-03T07:58:30;101377.00;;;7.96
70533;BMP180;58088;51.186;17.130;2023-04-03T08:00:56;101373.60;;;7.80
70533;BMP180;58088;51.186;17.130;2023-04-03T08:03:23;101367.60;;;8.00
70533;BMP180;58088;51.186;17.130;2023-04-03T08:05:50;101375.00;;;8.24
70533;BMP180;58088;51.186;17.130;2023-04-03T08:08:20;101384.60;;;8.20
70533;BMP180;58088;51.186;17.130;2023-04-03T08:10:53;101378.80;;;8.10
70533;BMP180;58088;51.186;17.130;2023-04-03T08:13:21;101368.60;;;8.14
70533;BMP180;58088;51.186;17.130;2023-04-03T08:15:48;101372.00;;;8.20
70533;BMP180;58088;51.186;17.130;2023-04-03T08:18:15;101371.20;;;8.30
70533;BMP180;58088;51.186;17.130;2023-04-03T08:20:42;101370.40;;;8.40
70533;BMP180;58088;51.186;17.130;2023-04-03T08:23:09;101377.00;;;8.44
70533;BMP180;58088;51.186;17.130;2023-04-03T08:25:43;101371.60;;;8.64
70533;BMP180;58088;51.186;17.130;2023-04-03T08:28:11;101378.20;;;8.82
70533;BMP180;58088;51.186;17.130;2023-04-03T08:30:41;101370.80;;;8.80
70533;BMP180;58088;51.186;17.130;2023-04-03T08:33:09;101367.80;;;8.80
70533;BMP180;58088;51.186;17.130;2023-04-03T08:35:40;101364.00;;;8.90
70533;BMP180;58088;51.186;17.130;2023-04-03T08:38:08;101363.60;;;9.00
70533;BMP180;58088;51.186;17.130;2023-04-03T08:40:34;101375.00;;;9.00
70533;BMP180;58088;51.186;17.130;2023-04-03T08:43:53;101374.60;;;9.00
70533;BMP180;58088;51.186;17.130;2023-04-03T08:46:33;101367.20;;;9.00
70533;BMP180;58088;51.186;17.130;2023-04-03T08:49:02;101363.80;;;9.10
70533;BMP180;58088;51.186;17.130;2023-04-03T08:51:29;101364.80;;;9.30
70533;BMP180;58088;51.186;17.130;2023-04-03T08:54:04;101367.40;;;9.40
70533;BMP180;58088;51.186;17.130;2023-04-03T08:56:34;101367.80;;;9.30
70533;BMP180;58088;51.186;17.130;2023-04-03T08:59:12;101369.00;;;9.10
70533;BMP180;58088;51.186;17.130;2023-04-03T09:01:41;101372.40;;;8.90
70533;BMP180;58088;51.186;17.130;2023-04-03T09:04:14;101363.40;;;8.80
70533;BMP180;58088;51.186;17.130;2023-04-03T09:06:47;101382.40;;;8.70
70533;BMP180;58088;51.186;17.130;2023-04-03T09:12:19;101370.00;;;8.60
70533;BMP180;58088;51.186;17.130;2023-04-03T09:20:19;101368.20;;;8.46
70533;BMP180;58088;51.186;17.130;2023-04-03T09:22:47;101367.20;;;8.40
70533;BMP180;58088;51.186;17.130;2023-04-03T09:25:21;101374.20;;;8.42
70533;BMP180;58088;51.186;17.130;2023-04-03T09:27:48;101371.20;;;8.40
70533;BMP180;58088;51.186;17.130;2023-04-03T09:30:22;101371.80;;;8.40
70533;BMP180;58088;51.186;17.130;2023-04-03T09:32:53;101359.00;;;8.48
70533;BMP180;58088;51.186;17.130;2023-04-03T09:35:26;101373.20;;;8.44
70533;BMP180;58088;51.186;17.130;2023-04-03T09:38:14;101379.20;;;8.60
70533;BMP180;58088;51.186;17.130;2023-04-03T09:40:49;101372.60;;;8.58
70533;BMP180;58088;51.186;17.130;2023-04-03T09:45:45;101383.20;;;8.70
70533;BMP180;58088;51.186;17.130;2023-04-03T09:53:39;101380.00;;;8.86
70533;BMP180;58088;51.186;17.130;2023-04-03T09:56:30;101379.20;;;8.90
70533;BMP180;58088;51.186;17.130;2023-04-03T10:01:32;101378.60;;;8.90
70533;BMP180;58088;51.186;17.130;2023-04-03T10:04:12;101370.80;;;9.00
70533;BMP180;58088;51.186;17.130;2023-04-03T10:06:44;101377.60;;;8.96
70533;BMP180;58088;51.186;17.130;2023-04-03T10:09:23;101375.00;;;8.80
70533;BMP180;58088;51.186;17.130;2023-04-03T10:12:08;101376.00;;;8.60
70533;BMP180;58088;51.186;17.130;2023-04-03T10:14:39;101366.20;;;8.40
70533;BMP180;58088;51.186;17.130;2023-04-03T10:20:21;101378.40;;;8.12
70533;BMP180;58088;51.186;17.130;2023-04-03T10:23:12;101380.60;;;8.10
70533;BMP180;58088;51.186;17.130;2023-04-03T10:26:31;101379.20;;;8.00
70533;BMP180;58088;51.186;17.130;2023-04-03T10:29:20;101375.20;;;7.96
70533;BMP180;58088;51.186;17.130;2023-04-03T10:34:44;101373.40;;;8.40
70533;BMP180;58088;51.186;17.130;2023-04-03T10:43:33;101371.80;;;8.10
70533;BMP180;58088;51.186;17.130;2023-04-03T10:46:13;101362.20;;;8.20
70533;BMP180;58088;51.186;17.130;2023-04-03T10:49:05;101363.40;;;8.20
70533;BMP180;58088;51.186;17.130;2023-04-03T10:51:47;101360.00;;;8.18
70533;BMP180;58088;51.186;17.130;2023-04-03T10:54:42;101365.40;;;8.10
70533;BMP180;58088;51.186;17.130;2023-04-03T10:57:11;101365.60;;;8.00
70533;BMP180;58088;51.186;17.130;2023-04-03T11:02:27;101366.00;;;7.98
70533;BMP180;58088;51.186;17.130;2023-04-03T11:07:54;101359.60;;;8.20
70533;BMP180;58088;51.186;17.130;2023-04-03T11:10:42;101355.40;;;8.40
70533;BMP180;58088;51.186;17.130;2023-04-03T11:16:48;101354.60;;;8.58
70533;BMP180;58088;51.186;17.130;2023-04-03T11:22:11;101364.80;;;8.50
70533;BMP180;58088;51.186;17.130;2023-04-03T11:24:43;101349.20;;;8.40
70533;BMP180;58088;51.186;17.130;2023-04-03T11:27:22;101342.20;;;8.40
70533;BMP180;58088;51.186;17.130;2023-04-03T11:29:51;101349.60;;;8.44
70533;BMP180;58088;51.186;17.130;2023-04-03T11:35:02;101360.00;;;8.10
70533;BMP180;58088;51.186;17.130;2023-04-03T11:37:44;101358.60;;;8.00
70533;BMP180;58088;51.186;17.130;2023-04-03T11:42:55;101347.80;;;8.40
70533;BMP180;58088;51.186;17.130;2023-04-03T11:45:29;101336.00;;;8.40
70533;BMP180;58088;51.186;17.130;2023-04-03T11:50:48;101332.20;;;8.30
70533;BMP180;58088;51.186;17.130;2023-04-03T11:58:20;101334.00;;;8.60
70533;BMP180;58088;51.186;17.130;2023-04-03T12:00:54;101339.20;;;8.50
70533;BMP180;58088;51.186;17.130;2023-04-03T12:11:13;101339.40;;;8.04
70533;BMP180;58088;51.186;17.130;2023-04-03T12:24:33;101334.40;;;8.40
70533;BMP180;58088;51.186;17.130;2023-04-03T12:35:27;101329.40;;;8.30
70533;BMP180;58088;51.186;17.130;2023-04-03T12:41:37;101326.80;;;8.30
70533;BMP180;58088;51.186;17.130;2023-04-03T12:44:53;101334.80;;;8.40
70533;BMP180;58088;51.186;17.130;2023-04-03T12:49:52;101324.00;;;8.40
70533;BMP180;58088;51.186;17.130;2023-04-03T12:52:33;101327.20;;;8.30
70533;BMP180;58088;51.186;17.130;2023-04-03T12:55:03;101334.00;;;8.20
70533;BMP180;58088;51.186;17.130;2023-04-03T12:57:33;101338.40;;;8.30
70533;BMP180;58088;51.186;17.130;2023-04-03T12:59:59;101331.20;;;8.32
70533;BMP180;58088;51.186;17.130;2023-04-03T13:02:32;101328.00;;;8.50
70533;BMP180;58088;51.186;17.130;2023-04-03T13:05:09;101324.40;;;8.50
70533;BMP180;58088;51.186;17.130;2023-04-03T13:07:38;101329.80;;;8.60
70533;BMP180;58088;51.186;17.130;2023-04-03T13:12:53;101318.40;;;8.58
70533;BMP180;58088;51.186;17.130;2023-04-03T13:15:25;101317.00;;;8.42
70533;BMP180;58088;51.186;17.130;2023-04-03T13:17:53;101307.80;;;8.56
70533;BMP180;58088;51.186;17.130;2023-04-03T13:20:33;101313.60;;;8.60
70533;BMP180;58088;51.186;17.130;2023-04-03T13:23:06;101320.60;;;8.60
70533;BMP180;58088;51.186;17.130;2023-04-03T13:25:41;101320.00;;;8.60
70533;BMP180;58088;51.186;17.130;2023-04-03T13:28:14;101310.20;;;8.60
70533;BMP180;58088;51.186;17.130;2023-04-03T13:33:35;101324.00;;;8.60
70533;BMP180;58088;51.186;17.130;2023-04-03T13:36:21;101322.80;;;8.50
70533;BMP180;58088;51.186;17.130;2023-04-03T13:39:22;101307.80;;;8.50
70533;BMP180;58088;51.186;17.130;2023-04-03T13:41:56;101326.80;;;8.40
70533;BMP180;58088;51.186;17.130;2023-04-03T13:44:36;101315.20;;;8.30
70533;BMP180;58088;51.186;17.130;2023-04-03T13:50:04;101314.20;;;8.40
70533;BMP180;58088;51.186;17.130;2023-04-03T13:52:40;101309.80;;;8.48
70533;BMP180;58088;51.186;17.130;2023-04-03T14:00:48;101324.20;;;8.40
70533;BMP180;58088;51.186;17.130;2023-04-03T14:03:58;101318.00;;;8.26
70533;BMP180;58088;51.186;17.130;2023-04-03T14:06:25;101314.20;;;8.20
70533;BMP180;58088;51.186;17.130;2023-04-03T14:08:52;101311.20;;;8.20
70533;BMP180;58088;51.186;17.130;2023-04-03T14:11:24;101305.80;;;8.24
70533;BMP180;58088;51.186;17.130;2023-04-03T14:13:53;101309.20;;;8.30
70533;BMP180;58088;51.186;17.130;2023-04-03T14:16:23;101308.20;;;8.40
70533;BMP180;58088;51.186;17.130;2023-04-03T14:18:51;101302.00;;;8.50
70533;BMP180;58088;51.186;17.130;2023-04-03T14:21:20;101315.00;;;8.60
70533;BMP180;58088;51.186;17.130;2023-04-03T14:23:48;101321.20;;;8.60
70533;BMP180;58088;51.186;17.130;2023-04-03T14:26:19;101314.60;;;8.60
70533;BMP180;58088;51.186;17.130;2023-04-03T14:28:50;101306.80;;;8.60
70533;BMP180;58088;51.186;17.130;2023-04-03T14:31:18;101311.60;;;8.50
70533;BMP180;58088;51.186;17.130;2023-04-03T14:33:45;101311.20;;;8.40
70533;BMP180;58088;51.186;17.130;2023-04-03T14:36:22;101317.00;;;8.30
70533;BMP180;58088;51.186;17.130;2023-04-03T14:38:49;101316.80;;;8.30
70533;BMP180;58088;51.186;17.130;2023-04-03T14:41:20;101320.60;;;8.30
70533;BMP180;58088;51.186;17.130;2023-04-03T14:43:48;101309.40;;;8.30
70533;BMP180;58088;51.186;17.130;2023-04-03T14:46:37;101295.40;;;8.30
70533;BMP180;58088;51.186;17.130;2023-04-03T14:49:15;101314.60;;;8.20
70533;BMP180;58088;51.186;17.130;2023-04-03T14:51:41;101302.60;;;8.10
70533;BMP180;58088;51.186;17.130;2023-04-03T14:54:26;101305.60;;;8.10
70533;BMP180;58088;51.186;17.130;2023-04-03T14:56:59;101308.80;;;8.00
70533;BMP180;58088;51.186;17.130;2023-04-03T14:59:26;101307.80;;;8.00
70533;BMP180;58088;51.186;17.130;2023-04-03T15:01:54;101302.00;;;8.08
70533;BMP180;58088;51.186;17.130;2023-04-03T15:04:21;101314.80;;;8.10
70533;BMP180;58088;51.186;17.130;2023-04-03T15:06:48;101308.80;;;8.10
70533;BMP180;58088;51.186;17.130;2023-04-03T15:09:25;101320.60;;;8.00
70533;BMP180;58088;51.186;17.130;2023-04-03T15:11:53;101316.40;;;7.90
70533;BMP180;58088;51.186;17.130;2023-04-03T15:14:21;101316.60;;;7.90
70533;BMP180;58088;51.186;17.130;2023-04-03T15:16:48;101320.80;;;7.80
70533;BMP180;58088;51.186;17.130;2023-04-03T15:19:14;101314.20;;;7.80
70533;BMP180;58088;51.186;17.130;2023-04-03T15:21:40;101310.40;;;7.80
70533;BMP180;58088;51.186;17.130;2023-04-03T15:24:08;101312.60;;;7.80
70533;BMP180;58088;51.186;17.130;2023-04-03T15:26:35;101316.20;;;7.80
70533;BMP180;58088;51.186;17.130;2023-04-03T15:29:01;101318.00;;;7.80
70533;BMP180;58088;51.186;17.130;2023-04-03T15:31:27;101317.60;;;7.76
70533;BMP180;58088;51.186;17.130;2023-04-03T15:33:54;101312.80;;;7.80
70533;BMP180;58088;51.186;17.130;2023-04-03T15:36:20;101317.20;;;7.70
70533;BMP180;58088;51.186;17.130;2023-04-03T15:38:47;101318.00;;;7.60
70533;BMP180;58088;51.186;17.130;2023-04-03T15:41:13;101329.20;;;7.56
70533;BMP180;58088;51.186;17.130;2023-04-03T15:43:39;101336.40;;;7.50
70533;BMP180;58088;51.186;17.130;2023-04-03T15:46:06;101331.20;;;7.50
70533;BMP180;58088;51.186;17.130;2023-04-03T15:48:32;101335.20;;;7.50
70533;BMP180;58088;51.186;17.130;2023-04-03T15:51:00;101338.60;;;7.50
70533;BMP180;58088;51.186;17.130;2023-04-03T15:53:26;101332.60;;;7.42
70533;BMP180;58088;51.186;17.130;2023-04-03T15:55:53;101335.80;;;7.42
70533;BMP180;58088;51.186;17.130;2023-04-03T15:58:19;101332.60;;;7.40
70533;BMP180;58088;51.186;17.130;2023-04-03T16:00:45;101335.80;;;7.42
70533;BMP180;58088;51.186;17.130;2023-04-03T16:03:17;101335.00;;;7.40